Ana Sayfa
METAR-TAF:

METAR-TAF

Havaalanları :

Shizuoka, Japonya

Enlem: 34-47-46N, Boylam: 138-11-22E, yükseklik: 132 m

Güncel hava durumu gözlemi

Rapor saat 12:00 UTC de 2 saat ve 48 dakika önce yapıldı.
Rüzgar batı/güneybatıdan 11 kt
Sıcaklık 26°C
Nem 84%
Basınç 1011 hPa
Görüş mesafesi 10 km veya daha fazla
1500 ft yükseklikte az bulutlu
11000 ft yükseklikte parçalı bulutlu
13000 ft yükseklikte parçalı çok bulutlu

METAR: RJNS 251200Z 25011KT 9999 FEW015 SCT110 BKN130 26/23 Q1011

Saat: 23:48 (14:48 UTC)

Tahmin

Rapor saat 11:05 UTC de 3 saat ve 43 dakika önce yapıldı.
Ayın 25'si saat 12 UTC'den ayın 26'si saat 18 UTC'ye kadar geçerli Tahmin
Rüzgar batıdan 12 kt
Görüş mesafesi 10 km veya daha fazla
3000 ft yükseklikte az bulutlu

TAF: RJNS 251105Z 2512/2618 26012KT 9999 FEW030

4.000'den fazla havaalanı için hava durumu gözlemleri ve tahminleri (METAR ve TAF raporları).

Kullanılabilir istasyonlar harita üzerinde sarı ve kırmızı noktalarla gösterilir.

İstasyonun adını görmek için fareyi noktanın üzerinde gezdirin.

Sonrasında hava gözlem ve tahminlerini görmek için tıklayın.

Haritayı değiştirmek için: yaklaştırmak için siyah artı işaretli yeşil düğmeye ve uzaklaştırmak için de eksi işaretli düğmeye hızla tıklayın; bitişik haritalar için yeşil okları kullanın.


METAR-TAF: